Terminal Aerodrome Forecast
Issued by NWS Mobile, AL

Home | Current Version | Previous Version | Text Only | Print | Product List | Glossary On
Versions: 1 2 3 4 5 6 7 8 9 10 11 12 13 14 15 16 17 18 19 20 21 22 23 24
000
FTUS44 KMOB 051143
TAFPNS
TAF
KPNS 051143Z 0512/0612 VRB03KT P6SM -RA VCTS SCT050CB BKN150
      TEMPO 0513/0517 VRB20G30KT 3SM TSRA BKN030CB
     FM051700 22009KT P6SM VCTS SCT040CB BKN100
      TEMPO 0523/0603 VRB15G25KT 4SM TSRA BKN040CB=

USA.gov is the U.S. government's official web portal to all federal, state and local government web resources and services.